Time;durP1;ratioP1;P1;durP2;ratioP2;P2;SDS_P1;SDS_P2;PMS_P1;PMS_P2;Temp;Humidity;BMP_temperature;BMP_pressure;BME280_temperature;BME280_humidity;BME280_pressure;Samples;Min_cycle;Max_cycle;Signal;HPM_P1;HPM_P2
2022/05/25 00:01:00;;;;;;;26.33;22.00;;;16.10;99.90;;;;;;4954167;28;20501;-83
2022/05/25 00:03:28;;;;;;;27.25;23.42;;;16.10;99.90;;;;;;4955595;29;20263;-82
2022/05/25 00:05:54;;;;;;;31.10;23.45;;;16.10;99.90;;;;;;4953887;28;20043;-82
2022/05/25 00:08:21;;;;;;;26.00;22.25;;;16.00;99.90;;;;;;4937810;29;20090;-84
2022/05/25 00:10:47;;;;;;;25.55;21.38;;;16.10;99.90;;;;;;4954103;28;20031;-85
2022/05/25 00:13:12;;;;;;;27.23;21.67;;;16.00;99.90;;;;;;4955308;29;20086;-82
2022/05/25 00:15:39;;;;;;;26.27;22.33;;;16.00;99.90;;;;;;4954151;29;20035;-82
2022/05/25 00:18:05;;;;;;;27.17;22.70;;;16.00;99.90;;;;;;4953488;28;20031;-85
2022/05/25 00:20:30;;;;;;;24.67;22.02;;;15.90;99.90;;;;;;4937845;29;20031;-85
2022/05/25 00:22:57;;;;;;;27.42;21.58;;;15.90;99.90;;;;;;4954183;29;20031;-83
2022/05/25 00:25:33;;;;;;;24.48;20.45;;;15.90;99.90;;;;;;4937761;29;20032;-85
2022/05/25 00:28:05;;;;;;;30.00;24.10;;;16.00;99.90;;;;;;4953114;28;20475;-83
2022/05/25 00:30:31;;;;;;;30.15;22.48;;;16.00;99.90;;;;;;4952255;28;20027;-82
2022/05/25 00:32:58;;;;;;;30.27;24.47;;;15.80;99.90;;;;;;4917806;29;20036;-84
2022/05/25 00:35:27;;;;;;;30.35;23.58;;;15.80;99.90;;;;;;4918712;29;20283;-83
2022/05/25 00:37:52;;;;;;;34.42;24.38;;;15.90;99.90;;;;;;4918508;29;20033;-84
2022/05/25 00:40:25;;;;;;;29.60;23.38;;;15.90;99.90;;;;;;4919094;29;20118;-82
2022/05/25 00:42:53;;;;;;;30.80;23.13;;;15.90;99.90;;;;;;4934625;29;20083;-83
2022/05/25 00:45:19;;;;;;;32.55;24.95;;;15.90;99.90;;;;;;4934410;29;20099;-84
2022/05/25 00:47:49;;;;;;;29.15;22.63;;;15.80;99.90;;;;;;4934392;29;20032;-84
2022/05/25 00:50:18;;;;;;;28.25;22.85;;;15.90;99.90;;;;;;4936900;29;20055;-84
2022/05/25 00:52:46;;;;;;;29.60;23.98;;;15.90;99.90;;;;;;4937176;29;20341;-84
2022/05/25 00:55:18;;;;;;;31.95;23.02;;;15.80;99.90;;;;;;4937514;29;20027;-85
2022/05/25 00:57:48;;;;;;;27.67;23.70;;;15.80;99.90;;;;;;4938717;29;20035;-85
2022/05/25 01:00:26;;;;;;;30.25;25.13;;;15.80;99.90;;;;;;4937086;28;20051;-85
2022/05/25 01:03:13;;;;;;;32.85;25.60;;;15.90;99.90;;;;;;4954588;28;20058;-85
2022/05/25 01:06:17;;;;;;;29.27;24.55;;;15.80;99.90;;;;;;4937219;29;20038;-85
2022/05/25 01:09:05;;;;;;;27.77;23.80;;;15.80;99.90;;;;;;4905392;28;20035;-86
2022/05/25 01:11:59;;;;;;;26.90;22.55;;;15.80;99.90;;;;;;4937358;29;20090;-82
2022/05/25 01:14:58;;;;;;;32.50;24.40;;;15.80;99.90;;;;;;4929756;29;20130;-85
2022/05/25 01:17:30;;;;;;;29.58;24.35;;;15.70;99.90;;;;;;4937240;29;20027;-86
2022/05/25 01:20:01;;;;;;;31.73;26.42;;;15.70;99.90;;;;;;4936882;29;20110;-86
2022/05/25 01:22:40;;;;;;;32.55;24.92;;;15.70;99.90;;;;;;4937042;29;20031;-83
2022/05/25 01:25:36;;;;;;;33.15;26.00;;;15.70;99.90;;;;;;4936733;29;20032;-86
2022/05/25 01:28:40;;;;;;;27.88;23.02;;;15.70;99.90;;;;;;4936790;29;20042;-82
2022/05/25 01:31:11;;;;;;;29.20;24.40;;;15.70;99.90;;;;;;4937214;28;20035;-85
2022/05/25 01:33:45;;;;;;;31.63;25.13;;;15.70;99.90;;;;;;4936985;28;20038;-83
2022/05/25 01:36:19;;;;;;;30.83;25.63;;;15.70;99.90;;;;;;4953882;28;20019;-86
2022/05/25 01:39:04;;;;;;;36.88;29.42;;;15.60;99.90;;;;;;4936416;28;20059;-83
2022/05/25 01:41:48;;;;;;;40.92;30.60;;;15.60;99.90;;;;;;4953999;29;20059;-82
2022/05/25 01:44:18;;;;;;;42.17;33.40;;;15.60;99.90;;;;;;4935826;28;20352;-85
2022/05/25 01:46:57;;;;;;;40.50;31.33;;;15.60;99.90;;;;;;4936336;29;20031;-83
2022/05/25 01:49:28;;;;;;;36.47;29.17;;;15.60;99.90;;;;;;4936475;29;20027;-85
2022/05/25 01:52:02;;;;;;;38.58;31.05;;;15.70;99.90;;;;;;4936463;29;20051;-86
2022/05/25 01:54:32;;;;;;;43.00;31.83;;;15.70;99.90;;;;;;4936353;28;20034;-83
2022/05/25 01:57:05;;;;;;;44.15;32.50;;;15.70;99.90;;;;;;4936293;28;20227;-85
2022/05/25 01:59:31;;;;;;;44.95;31.45;;;15.70;99.90;;;;;;4936135;29;20118;-83
2022/05/25 02:05:00;;;;;;;35.47;28.63;;;15.70;99.90;;;;;;4937717;29;20046;-84
2022/05/25 02:07:25;;;;;;;37.40;29.15;;;15.70;99.90;;;;;;4936669;29;20114;-84
2022/05/25 02:10:13;;;;;;;36.85;28.55;;;15.60;99.90;;;;;;4936154;29;20977;-84
2022/05/25 02:13:09;;;;;;;32.20;27.20;;;15.60;99.90;;;;;;4936014;29;20121;-84
2022/05/25 02:15:54;;;;;;;35.08;29.20;;;15.50;99.90;;;;;;4936472;29;20425;-83
2022/05/25 02:18:39;;;;;;;33.20;28.30;;;15.40;99.90;;;;;;4935826;29;20431;-86
2022/05/25 02:21:20;;;;;;;32.17;25.92;;;15.40;99.90;;;;;;4936796;28;20042;-84
2022/05/25 02:23:58;;;;;;;34.22;27.42;;;15.50;99.90;;;;;;4935802;29;20031;-84
2022/05/25 02:26:33;;;;;;;34.65;29.60;;;15.50;99.90;;;;;;4938699;29;20040;-82
2022/05/25 02:29:16;;;;;;;36.60;28.05;;;15.40;99.90;;;;;;4954684;29;20031;-83
2022/05/25 02:31:53;;;;;;;32.03;28.20;;;15.40;99.90;;;;;;4943072;28;20471;-84
2022/05/25 02:34:21;;;;;;;32.58;28.05;;;15.50;99.90;;;;;;4956107;28;20471;-86
2022/05/25 02:36:49;;;;;;;37.28;30.17;;;15.40;99.90;;;;;;4954933;28;20039;-84
2022/05/25 02:39:15;;;;;;;37.63;30.52;;;15.40;99.90;;;;;;4954565;28;20114;-84
2022/05/25 02:41:51;;;;;;;37.97;30.73;;;15.40;99.90;;;;;;4955034;28;20031;-85
2022/05/25 02:44:17;;;;;;;36.05;30.23;;;15.50;99.90;;;;;;4954859;28;20022;-87
2022/05/25 02:46:43;;;;;;;41.03;31.83;;;15.40;99.90;;;;;;4954343;28;20034;-84
2022/05/25 02:49:10;;;;;;;41.37;32.07;;;15.40;99.90;;;;;;4954435;28;20505;-83
2022/05/25 02:51:36;;;;;;;36.08;29.77;;;15.40;99.90;;;;;;4971743;28;20146;-85
2022/05/25 02:54:03;;;;;;;36.10;29.73;;;15.40;99.90;;;;;;4954525;28;20031;-85
2022/05/25 02:56:29;;;;;;;42.58;31.20;;;15.40;99.90;;;;;;4974897;23;20058;-51
2022/05/25 02:58:55;;;;;;;36.25;30.75;;;15.30;99.90;;;;;;4952569;29;20027;-51
2022/05/25 03:01:20;;;;;;;36.75;30.75;;;15.40;99.90;;;;;;4953679;29;20023;-50
2022/05/25 03:03:46;;;;;;;36.60;30.60;;;15.40;99.90;;;;;;4953192;29;20030;-49
2022/05/25 03:06:12;;;;;;;36.03;30.67;;;15.40;99.90;;;;;;4953192;29;20039;-51
2022/05/25 03:08:38;;;;;;;39.00;31.92;;;15.50;99.90;;;;;;4953458;28;20034;-50
2022/05/25 03:11:05;;;;;;;40.30;31.58;;;15.40;99.90;;;;;;4953547;29;20028;-51
2022/05/25 03:13:31;;;;;;;40.70;31.75;;;15.40;99.90;;;;;;4952952;29;20098;-52
2022/05/25 03:16:00;;;;;;;38.15;31.15;;;15.40;99.90;;;;;;4953672;29;20027;-51
2022/05/25 03:18:26;;;;;;;41.30;31.10;;;15.30;99.90;;;;;;4953147;28;20035;-50
2022/05/25 03:20:52;;;;;;;39.10;30.30;;;15.30;99.90;;;;;;4953183;28;20411;-52
2022/05/25 03:23:18;;;;;;;40.15;31.52;;;15.30;99.90;;;;;;4953178;29;20028;-51
2022/05/25 03:25:45;;;;;;;37.95;31.02;;;15.30;99.90;;;;;;4953401;28;20035;-50
2022/05/25 03:28:11;;;;;;;37.67;31.75;;;15.40;99.90;;;;;;4952740;29;20691;-50
2022/05/25 03:30:37;;;;;;;38.45;30.92;;;15.30;99.90;;;;;;4953552;29;20139;-51
2022/05/25 03:33:03;;;;;;;38.00;32.03;;;15.40;99.90;;;;;;4953138;28;20039;-49
2022/05/25 03:35:29;;;;;;;36.72;28.35;;;15.40;99.90;;;;;;4953265;29;20038;-52
2022/05/25 03:37:54;;;;;;;37.97;31.38;;;15.40;99.90;;;;;;4953047;28;20031;-51
2022/05/25 03:40:21;;;;;;;38.28;30.70;;;15.40;99.90;;;;;;4952875;29;20058;-50
2022/05/25 03:42:47;;;;;;;39.35;31.83;;;15.40;99.90;;;;;;4952918;29;20054;-52
2022/05/25 03:45:15;;;;;;;43.03;33.73;;;15.40;99.90;;;;;;4953164;29;20073;-50
2022/05/25 03:47:41;;;;;;;40.10;31.60;;;15.40;99.90;;;;;;4953085;29;20338;-51
2022/05/25 03:50:08;;;;;;;38.47;32.08;;;15.40;99.90;;;;;;4952859;29;20031;-51
2022/05/25 03:52:34;;;;;;;39.05;32.85;;;15.40;99.90;;;;;;4952893;29;20032;-51
2022/05/25 03:55:00;;;;;;;43.83;33.67;;;15.60;99.90;;;;;;4953179;29;20030;-50
2022/05/25 03:57:26;;;;;;;41.55;32.67;;;15.50;99.90;;;;;;4965855;28;20058;-52
2022/05/25 03:59:51;;;;;;;41.40;34.78;;;15.60;99.90;;;;;;4971956;28;20391;-50
2022/05/25 04:02:17;;;;;;;41.95;33.05;;;15.50;99.90;;;;;;4972377;28;20505;-51
2022/05/25 04:04:43;;;;;;;40.70;32.78;;;15.50;99.90;;;;;;4972061;28;20033;-51
2022/05/25 04:07:09;;;;;;;41.88;32.28;;;15.70;99.90;;;;;;4973440;28;20031;-50
2022/05/25 04:09:36;;;;;;;42.50;33.35;;;15.60;99.90;;;;;;4975349;28;20038;-52
2022/05/25 04:12:02;;;;;;;43.13;33.55;;;15.60;99.90;;;;;;4975860;28;20125;-50
2022/05/25 04:14:28;;;;;;;45.25;35.47;;;15.60;99.90;;;;;;4975574;28;20618;-50
2022/05/25 04:16:53;;;;;;;44.35;33.08;;;15.70;99.90;;;;;;4975759;28;20081;-51
2022/05/25 04:19:19;;;;;;;41.28;34.05;;;15.70;99.90;;;;;;4958022;28;20055;-50
2022/05/25 04:21:45;;;;;;;44.95;34.47;;;15.70;99.90;;;;;;4975652;28;20430;-50
2022/05/25 04:24:12;;;;;;;38.45;32.55;;;15.70;99.90;;;;;;4975388;28;20026;-51
2022/05/25 04:26:39;;;;;;;44.70;34.70;;;15.80;99.90;;;;;;4975374;28;20509;-51
2022/05/25 04:29:06;;;;;;;45.25;35.35;;;15.80;99.90;;;;;;4975049;28;20540;-51
2022/05/25 04:31:31;;;;;;;44.83;34.08;;;15.90;99.90;;;;;;4975308;28;20022;-51
2022/05/25 04:33:57;;;;;;;45.88;33.40;;;15.90;99.90;;;;;;4975360;28;20026;-50
2022/05/25 04:36:23;;;;;;;43.42;34.50;;;15.90;99.90;;;;;;4975247;28;20046;-51
2022/05/25 04:38:49;;;;;;;42.67;34.60;;;15.90;99.90;;;;;;4974978;28;20030;-51
2022/05/25 04:41:15;;;;;;;46.70;36.28;;;15.90;99.90;;;;;;4975218;28;20026;-50
2022/05/25 04:43:40;;;;;;;41.38;35.30;;;15.90;99.90;;;;;;4957700;28;20031;-50
2022/05/25 04:46:09;;;;;;;45.13;34.50;;;15.90;99.90;;;;;;4975027;28;20042;-51
2022/05/25 04:48:35;;;;;;;45.35;36.13;;;15.90;99.90;;;;;;4975054;28;20102;-50
2022/05/25 04:51:01;;;;;;;42.65;35.42;;;15.90;99.90;;;;;;4975044;28;20031;-51
2022/05/25 04:53:27;;;;;;;44.72;35.03;;;15.90;99.90;;;;;;4974876;28;20027;-52
2022/05/25 04:58:44;;;;;;;41.15;34.30;;;16.00;99.90;;;;;;4974837;28;20118;-51
2022/05/25 05:01:12;;;;;;;45.28;35.15;;;15.90;99.90;;;;;;4975083;28;20528;-51
2022/05/25 05:03:39;;;;;;;41.72;34.63;;;15.90;99.90;;;;;;4974727;28;20050;-51
2022/05/25 05:06:06;;;;;;;43.00;35.65;;;15.90;99.90;;;;;;4974482;28;20478;-52
2022/05/25 05:08:33;;;;;;;49.10;37.38;;;15.90;99.90;;;;;;4974746;28;20122;-52
2022/05/25 05:11:12;;;;;;;43.70;34.07;;;15.90;99.90;;;;;;4974783;28;20037;-52
2022/05/25 05:13:39;;;;;;;48.75;35.55;;;16.00;99.90;;;;;;4974537;28;20064;-52
2022/05/25 05:16:09;;;;;;;47.85;35.35;;;16.00;99.90;;;;;;4974574;28;20501;-51
2022/05/25 05:18:34;;;;;;;42.97;34.65;;;16.00;99.90;;;;;;4974001;28;20030;-50
2022/05/25 05:21:00;;;;;;;41.97;33.83;;;16.10;99.90;;;;;;4974945;28;20463;-50
2022/05/25 05:23:26;;;;;;;40.03;33.10;;;16.10;99.90;;;;;;4957259;28;20054;-52
2022/05/25 05:25:52;;;;;;;44.03;34.88;;;16.20;99.90;;;;;;4974170;28;20479;-51
2022/05/25 05:28:21;;;;;;;40.58;34.75;;;16.20;99.90;;;;;;4974339;28;20018;-50
2022/05/25 05:30:49;;;;;;;50.22;38.67;;;16.20;99.90;;;;;;4957056;28;20041;-51
2022/05/25 05:33:15;;;;;;;47.78;36.10;;;16.20;99.90;;;;;;4974019;28;20033;-50
2022/05/25 05:35:42;;;;;;;43.47;34.67;;;16.20;99.90;;;;;;4974216;28;20102;-51
2022/05/25 05:38:08;;;;;;;;;;;16.30;99.90;;;;;;4974623;28;20398;-51
2022/05/25 05:40:34;;;;;;;46.65;36.63;;;16.30;99.90;;;;;;4974306;28;19913;-51
2022/05/25 05:43:03;;;;;;;47.25;37.03;;;16.20;99.90;;;;;;4974052;28;20490;-50
2022/05/25 05:45:33;;;;;;;49.55;36.53;;;16.20;99.90;;;;;;4973804;28;20347;-50
2022/05/25 05:48:03;;;;;;;50.28;36.38;;;16.20;99.90;;;;;;4974154;28;20117;-51
2022/05/25 05:50:31;;;;;;;45.03;37.45;;;16.20;99.90;;;;;;4974318;28;20030;-51
2022/05/25 05:52:57;;;;;;;;;;;16.20;99.90;;;;;;4974472;28;20027;-51
2022/05/25 05:55:23;;;;;;;46.03;36.78;;;16.20;99.90;;;;;;4973817;28;20265;-52
2022/05/25 05:57:50;;;;;;;48.17;37.53;;;16.20;99.90;;;;;;4973633;28;20054;-53
2022/05/25 06:00:16;;;;;;;50.17;39.63;;;16.10;99.90;;;;;;4973525;28;20031;-50
2022/05/25 06:02:43;;;;;;;52.28;41.60;;;16.10;99.90;;;;;;4973701;28;20082;-51
2022/05/25 06:05:10;;;;;;;49.58;40.17;;;16.10;99.90;;;;;;4973510;28;20022;-53
2022/05/25 06:07:36;;;;;;;53.17;40.05;;;16.10;99.90;;;;;;4940394;28;20031;-51
2022/05/25 06:10:03;;;;;;;50.33;40.72;;;16.10;99.90;;;;;;4973359;28;20038;-51
2022/05/25 06:12:31;;;;;;;50.05;40.05;;;16.10;99.90;;;;;;4973373;28;20730;-50
2022/05/25 06:14:56;;;;;;;52.55;39.88;;;16.10;99.90;;;;;;4973297;28;20043;-51
2022/05/25 06:20:07;;;;;;;48.58;39.75;;;16.20;99.90;;;;;;4973380;28;20029;-51
2022/05/25 06:22:33;;;;;;;48.67;40.23;;;16.20;99.90;;;;;;4955791;28;20042;-50
2022/05/25 06:24:59;;;;;;;53.47;40.55;;;16.20;99.90;;;;;;4973350;28;20027;-51
2022/05/25 06:27:25;;;;;;;51.42;42.28;;;16.30;99.90;;;;;;4973110;28;20062;-51
2022/05/25 06:29:50;;;;;;;50.83;42.10;;;16.30;99.90;;;;;;4972480;28;20058;-52
2022/05/25 06:32:20;;;;;;;53.40;41.17;;;16.30;99.90;;;;;;4973296;28;20398;-52
2022/05/25 06:34:50;;;;;;;51.53;42.50;;;16.20;99.90;;;;;;4972894;28;20466;-52
2022/05/25 06:37:18;;;;;;;51.78;40.42;;;16.00;99.90;;;;;;4973313;28;20137;-51
2022/05/25 06:39:44;;;;;;;51.10;42.63;;;16.00;99.90;;;;;;4972456;28;20074;-52
2022/05/25 06:42:10;;;;;;;59.10;44.33;;;15.90;99.90;;;;;;4973200;28;20097;-50
2022/05/25 06:44:36;;;;;;;59.30;43.58;;;15.80;99.90;;;;;;4972887;28;20498;-51
2022/05/25 06:47:02;;;;;;;57.28;42.97;;;15.80;99.90;;;;;;4972717;28;20055;-50
2022/05/25 06:49:28;;;;;;;53.47;42.97;;;15.80;99.90;;;;;;4972658;28;20046;-51
2022/05/25 06:51:54;;;;;;;52.10;43.53;;;15.80;99.90;;;;;;4972926;28;20471;-51
2022/05/25 06:54:20;;;;;;;55.50;42.67;;;15.80;99.90;;;;;;4972690;28;20046;-51
2022/05/25 06:56:46;;;;;;;56.00;42.42;;;15.80;99.90;;;;;;4955268;28;20058;-51
2022/05/25 06:59:12;;;;;;;52.42;40.45;;;15.80;99.90;;;;;;4972759;28;20097;-51
2022/05/25 07:01:40;;;;;;;49.53;39.35;;;15.70;99.90;;;;;;4972872;28;20057;-52
2022/05/25 07:04:07;;;;;;;50.55;39.85;;;15.70;99.90;;;;;;4972607;28;20023;-51
2022/05/25 07:06:35;;;;;;;49.00;38.80;;;15.70;99.90;;;;;;4972559;28;20122;-51
2022/05/25 07:09:02;;;;;;;47.85;36.22;;;15.80;99.90;;;;;;4972313;28;20062;-50
2022/05/25 07:11:27;;;;;;;38.58;29.33;;;15.90;99.90;;;;;;4972828;28;20269;-51
2022/05/25 07:13:54;;;;;;;33.63;26.23;;;15.90;99.90;;;;;;4972585;28;20031;-52
2022/05/25 07:16:20;;;;;;;36.53;27.57;;;15.90;99.90;;;;;;4972673;28;20404;-50
2022/05/25 07:18:47;;;;;;;33.20;26.92;;;15.80;99.90;;;;;;4972286;28;20023;-51
2022/05/25 07:21:19;;;;;;;33.47;26.33;;;15.90;99.90;;;;;;4972691;28;20097;-51
2022/05/25 07:23:48;;;;;;;25.42;18.73;;;15.90;99.90;;;;;;4972393;28;20467;-51
2022/05/25 07:26:14;;;;;;;20.20;15.77;;;15.80;99.90;;;;;;4972103;28;20523;-51
2022/05/25 07:28:40;;;;;;;18.17;12.60;;;15.70;99.90;;;;;;4972285;28;20034;-52
2022/05/25 07:31:31;;;;;;;17.13;11.43;;;15.50;99.90;;;;;;4972505;28;20518;-51
2022/05/25 07:34:06;;;;;;;19.90;12.75;;;15.40;99.90;;;;;;4972385;28;20030;-51
2022/05/25 07:36:34;;;;;;;22.83;13.15;;;15.40;99.90;;;;;;4972554;28;20060;-51
2022/05/25 07:39:03;;;;;;;15.05;12.10;;;15.40;99.90;;;;;;4972164;28;20035;-50
2022/05/25 07:41:31;;;;;;;16.83;13.50;;;15.40;99.90;;;;;;4972588;28;20043;-51
2022/05/25 07:43:58;;;;;;;16.20;11.90;;;15.40;99.90;;;;;;4976215;28;20067;-52
2022/05/25 07:46:26;;;;;;;14.13;10.95;;;15.20;99.90;;;;;;4975926;28;20081;-51
2022/05/25 07:48:52;;;;;;;14.63;9.90;;;15.10;99.90;;;;;;4975809;28;20119;-51
2022/05/25 07:51:18;;;;;;;11.80;8.77;;;14.90;99.90;;;;;;4976353;28;20121;-52
2022/05/25 07:53:57;;;;;;;10.43;7.03;;;14.90;99.90;;;;;;4976006;28;20031;-51
2022/05/25 07:56:25;;;;;;;12.05;7.18;;;14.70;99.90;;;;;;4975897;28;20057;-51
2022/05/25 07:58:51;;;;;;;9.63;5.43;;;14.60;99.90;;;;;;4975741;28;20399;-52
2022/05/25 08:05:43;;;;;;;8.70;4.78;;;14.40;99.90;;;;;;4958912;28;20037;-50
2022/05/25 08:06:50;;;;;;;8.15;4.35;;;14.10;99.90;;;;;;4975660;28;20403;-51
2022/05/25 08:09:16;;;;;;;8.15;4.20;;;14.10;99.90;;;;;;4975454;28;20035;-51
2022/05/25 08:11:43;;;;;;;8.23;4.75;;;14.00;99.90;;;;;;4976042;28;20046;-51
2022/05/25 08:14:09;;;;;;;11.02;4.60;;;13.90;99.90;;;;;;4975429;28;20027;-52
2022/05/25 08:16:35;;;;;;;8.55;4.53;;;14.00;99.90;;;;;;4975698;28;20121;-50
2022/05/25 08:19:01;;;;;;;7.10;4.32;;;13.90;99.90;;;;;;4975132;28;20130;-51
2022/05/25 08:21:27;;;;;;;10.10;4.88;;;13.90;99.90;;;;;;4975743;28;20034;-51
2022/05/25 08:23:52;;;;;;;10.57;5.65;;;13.80;99.90;;;;;;4975375;28;20099;-51
2022/05/25 08:26:18;;;;;;;11.40;5.82;;;13.80;99.90;;;;;;4975777;28;20042;-50
2022/05/25 08:28:44;;;;;;;9.38;5.85;;;13.80;99.90;;;;;;4975138;28;20029;-52
2022/05/25 08:31:09;;;;;;;13.30;6.15;;;13.80;99.90;;;;;;4975423;28;20089;-52
2022/05/25 08:33:35;;;;;;;10.80;6.60;;;13.90;99.90;;;;;;4975408;28;20535;-50
2022/05/25 08:36:01;;;;;;;15.02;6.90;;;13.90;99.90;;;;;;4975528;28;20368;-52
2022/05/25 08:38:27;;;;;;;11.23;5.55;;;13.90;99.90;;;;;;4974840;28;20050;-51
2022/05/25 08:40:54;;;;;;;12.00;5.47;;;13.90;99.90;;;;;;4975729;28;20395;-52
2022/05/25 08:43:24;;;;;;;11.98;6.10;;;13.70;99.90;;;;;;4975281;28;20030;-50
2022/05/25 08:45:57;;;;;;;10.48;6.85;;;13.80;99.90;;;;;;4974857;28;20394;-50
2022/05/25 08:48:24;;;;;;;9.55;6.43;;;13.80;99.90;;;;;;4974751;28;20025;-52
2022/05/25 08:50:54;;;;;;;8.23;6.18;;;13.80;99.90;;;;;;4975186;28;20434;-51
2022/05/25 08:53:23;;;;;;;12.05;5.22;;;13.90;99.90;;;;;;4974431;28;20490;-50
2022/05/25 08:56:18;;;;;;;8.40;5.88;;;13.90;99.90;;;;;;4974855;28;20042;-51
2022/05/25 08:58:56;;;;;;;8.85;6.07;;;13.90;99.90;;;;;;4974190;28;20043;-51
2022/05/25 09:01:54;;;;;;;9.25;6.28;;;13.90;99.90;;;;;;4974788;28;20050;-52
2022/05/25 09:04:31;;;;;;;11.82;6.65;;;13.90;99.90;;;;;;4974846;28;20159;-50
2022/05/25 09:07:14;;;;;;;9.48;6.72;;;13.90;99.90;;;;;;4974959;28;20089;-51
2022/05/25 09:09:43;;;;;;;10.20;5.35;;;13.90;99.90;;;;;;4974516;28;20023;-52
2022/05/25 09:12:12;;;;;;;9.55;5.90;;;13.70;99.90;;;;;;4974471;28;20031;-52
2022/05/25 09:14:59;;;;;;;9.02;6.10;;;13.80;99.90;;;;;;4974510;28;20487;-52
2022/05/25 09:17:36;;;;;;;8.60;6.20;;;13.90;99.90;;;;;;4974568;28;20035;-52
2022/05/25 09:20:03;;;;;;;9.18;4.68;;;13.80;99.90;;;;;;4974390;28;20022;-52
2022/05/25 09:22:31;;;;;;;8.07;4.70;;;13.80;99.90;;;;;;4974687;28;20023;-51
2022/05/25 09:24:58;;;;;;;9.35;4.93;;;13.80;99.90;;;;;;4974365;28;20754;-51
2022/05/25 09:27:46;;;;;;;8.88;4.18;;;13.80;99.90;;;;;;4974499;28;20376;-52
2022/05/25 09:30:14;;;;;;;7.93;4.47;;;13.80;99.90;;;;;;4973895;28;20038;-50
2022/05/25 09:32:52;;;;;;;8.65;5.38;;;13.70;99.90;;;;;;4973772;28;20106;-53
2022/05/25 09:35:29;;;;;;;;;;;13.70;99.90;;;;;;4974693;28;20038;-50
2022/05/25 09:38:03;;;;;;;10.68;5.50;;;13.70;99.90;;;;;;4974101;28;19906;-50
2022/05/25 09:40:34;;;;;;;12.00;6.13;;;13.70;99.90;;;;;;4973963;28;20538;-51
2022/05/25 09:43:05;;;;;;;8.02;5.15;;;13.70;99.90;;;;;;4973943;28;20064;-52
2022/05/25 09:45:41;;;;;;;8.55;4.80;;;13.70;99.90;;;;;;4974020;28;20479;-50
2022/05/25 09:48:19;;;;;;;9.82;5.38;;;13.70;99.90;;;;;;4973721;28;20018;-50
2022/05/25 09:50:49;;;;;;;7.82;4.68;;;13.70;99.90;;;;;;4973987;28;20050;-51
2022/05/25 09:53:17;;;;;;;10.88;6.07;;;13.70;99.90;;;;;;4973821;28;20035;-50
2022/05/25 09:55:49;;;;;;;7.45;4.97;;;13.70;99.90;;;;;;4973791;28;20543;-51
2022/05/25 09:58:36;;;;;;;7.93;5.88;;;13.80;99.90;;;;;;4973661;28;20125;-51
2022/05/25 10:01:27;;;;;;;9.60;5.65;;;14.00;99.90;;;;;;4973869;28;20031;-51
2022/05/25 10:03:54;;;;;;;11.55;5.80;;;14.00;99.90;;;;;;4973163;28;20046;-53
2022/05/25 10:06:25;;;;;;;11.18;6.10;;;14.00;99.90;;;;;;4973245;28;20474;-51
2022/05/25 10:09:11;;;;;;;9.63;5.75;;;14.00;99.90;;;;;;4973227;28;20033;-51
2022/05/25 10:11:44;;;;;;;9.30;6.18;;;14.00;99.90;;;;;;4973646;28;20106;-52
2022/05/25 10:14:15;;;;;;;9.65;6.82;;;14.10;99.90;;;;;;4973426;28;20031;-50
2022/05/25 10:16:41;;;;;;;9.57;6.93;;;14.10;99.90;;;;;;4973365;28;20034;-51
2022/05/25 10:19:13;;;;;;;10.65;6.45;;;14.10;99.90;;;;;;4973285;28;20046;-50
2022/05/25 10:21:45;;;;;;;10.68;6.57;;;14.10;99.90;;;;;;4973453;28;20058;-52
2022/05/25 10:24:16;;;;;;;12.07;7.13;;;14.10;99.90;;;;;;4972956;28;20018;-51
2022/05/25 10:26:48;;;;;;;9.75;6.30;;;14.10;99.90;;;;;;4973356;28;20039;-52
2022/05/25 10:38:39;;;;;;;8.43;5.00;;;14.10;99.90;;;;;;4973469;28;20122;-50
2022/05/25 10:44:12;;;;;;;8.07;4.50;;;14.00;99.90;;;;;;4973452;28;20038;-51
2022/05/25 10:46:40;;;;;;;12.07;5.43;;;14.00;99.90;;;;;;4973184;28;20034;-51
2022/05/25 10:49:20;;;;;;;5.75;4.32;;;14.00;99.90;;;;;;4972757;28;20026;-52
2022/05/25 10:52:04;;;;;;;6.82;4.22;;;14.00;99.90;;;;;;4973026;28;20109;-53
2022/05/25 10:54:45;;;;;;;7.40;4.00;;;13.90;99.90;;;;;;4972925;28;20026;-52
2022/05/25 10:57:28;;;;;;;5.45;3.72;;;13.80;99.90;;;;;;4972622;28;20043;-51
2022/05/25 11:00:06;;;;;;;5.85;3.65;;;13.80;99.90;;;;;;4972604;28;20611;-51
2022/05/25 11:02:50;;;;;;;;;;;13.80;99.90;;;;;;4973397;28;20065;-51
2022/05/25 11:05:23;;;;;;;8.15;3.33;;;13.70;99.90;;;;;;4972648;28;19906;-52
2022/05/25 11:07:54;;;;;;;4.22;3.13;;;13.70;99.90;;;;;;4972650;28;20030;-51
2022/05/25 11:10:46;;;;;;;5.13;3.28;;;13.70;99.90;;;;;;4972604;28;20027;-50
2022/05/25 11:13:53;;;;;;;6.13;3.72;;;13.70;99.90;;;;;;4972533;28;20518;-52
2022/05/25 11:16:58;;;;;;;6.13;3.63;;;13.70;99.90;;;;;;4935467;28;20026;-52
2022/05/25 11:19:35;;;;;;;6.38;4.15;;;13.80;99.90;;;;;;4957968;28;20042;-50
2022/05/25 11:22:13;;;;;;;6.88;3.35;;;13.80;99.90;;;;;;4972427;28;20388;-52
2022/05/25 11:24:48;;;;;;;5.20;3.25;;;13.70;99.90;;;;;;4972492;28;20478;-51
2022/05/25 11:27:40;;;;;;;6.88;2.25;;;13.70;99.90;;;;;;4972446;28;20034;-51
2022/05/25 11:30:30;;;;;;;3.45;1.73;;;13.60;99.90;;;;;;4972400;28;20122;-50
2022/05/25 11:33:17;;;;;;;6.32;2.15;;;13.50;99.90;;;;;;4972342;28;20380;-51
2022/05/25 11:35:49;;;;;;;4.20;1.63;;;13.50;99.90;;;;;;4972526;28;20057;-51
2022/05/25 11:38:41;;;;;;;4.43;1.77;;;13.50;99.90;;;;;;4972526;28;20027;-52
2022/05/25 11:41:09;;;;;;;2.75;1.58;;;13.40;99.90;;;;;;4972243;28;20411;-51
2022/05/25 11:43:54;;;;;;;3.92;1.80;;;13.40;99.90;;;;;;4972192;28;20121;-51
2022/05/25 11:46:43;;;;;;;5.53;1.40;;;13.40;99.90;;;;;;4972663;28;20113;-51
2022/05/25 11:49:27;;;;;;;3.97;1.40;;;13.20;99.90;;;;;;4984493;23;20066;-84
2022/05/25 11:52:10;;;;;;;3.63;2.00;;;13.20;99.90;;;;;;4970965;28;20027;-85
2022/05/25 11:55:08;;;;;;;5.85;1.60;;;13.10;99.90;;;;;;4942327;28;20043;-85
2022/05/25 11:58:12;;;;;;;4.53;1.67;;;13.10;99.90;;;;;;4891759;28;20035;-85
2022/05/25 12:01:19;;;;;;;3.42;1.55;;;13.10;99.90;;;;;;4954716;28;20031;-85
2022/05/25 12:04:11;;;;;;;7.93;2.45;;;13.20;99.90;;;;;;4925866;28;20046;-85
2022/05/25 12:06:54;;;;;;;5.13;1.50;;;13.20;99.90;;;;;;4994768;28;20035;-85
2022/05/25 12:09:23;;;;;;;5.45;2.33;;;13.20;99.90;;;;;;4959419;28;20042;-85
2022/05/25 12:12:27;;;;;;;4.93;1.70;;;13.20;99.90;;;;;;4952578;28;20065;-85
2022/05/25 12:15:09;;;;;;;6.25;1.88;;;13.30;99.90;;;;;;4970643;28;20051;-84
2022/05/25 12:17:49;;;;;;;4.30;1.95;;;13.40;99.90;;;;;;4953185;28;20026;-85
2022/05/25 12:20:23;;;;;;;4.25;1.90;;;13.40;99.90;;;;;;4953185;28;20118;-85
2022/05/25 12:22:56;;;;;;;2.80;1.85;;;13.50;99.90;;;;;;4952832;28;20039;-86
2022/05/25 12:25:22;;;;;;;3.65;1.85;;;13.40;99.90;;;;;;4952663;28;20042;-85
2022/05/25 12:27:53;;;;;;;3.55;2.13;;;13.40;99.90;;;;;;4970138;28;20030;-85
2022/05/25 12:30:41;;;;;;;3.10;1.77;;;13.40;99.90;;;;;;4955988;28;20030;-86
2022/05/25 12:33:10;;;;;;;3.92;2.35;;;13.50;99.90;;;;;;4944247;28;20031;-85
2022/05/25 12:35:39;;;;;;;2.22;1.80;;;13.50;99.90;;;;;;4936480;29;20031;-85
2022/05/25 12:38:08;;;;;;;2.55;1.92;;;13.60;99.90;;;;;;4936439;28;20034;-86
2022/05/25 12:40:54;;;;;;;5.93;1.70;;;13.60;99.90;;;;;;4936492;29;20031;-85
2022/05/25 12:43:48;;;;;;;3.67;1.83;;;13.60;99.90;;;;;;4935921;29;20122;-85
2022/05/25 12:49:08;;;;;;;2.85;1.60;;;13.60;99.90;;;;;;4953084;29;20135;-85
2022/05/25 12:51:43;;;;;;;4.45;1.92;;;13.60;99.90;;;;;;4936555;29;20027;-85
2022/05/25 12:54:20;;;;;;;2.63;1.45;;;13.60;99.90;;;;;;4936124;29;20031;-86
2022/05/25 12:56:46;;;;;;;5.32;1.63;;;13.70;99.90;;;;;;4936077;29;20031;-85
2022/05/25 12:59:25;;;;;;;3.65;2.00;;;13.80;99.90;;;;;;4935988;29;20028;-85
2022/05/25 13:02:19;;;;;;;5.75;1.98;;;13.90;99.90;;;;;;4936180;28;20035;-85
2022/05/25 13:04:52;;;;;;;3.45;1.52;;;14.00;99.90;;;;;;4936191;29;20065;-85
2022/05/25 13:07:33;;;;;;;4.22;1.77;;;14.00;99.90;;;;;;4953342;29;20054;-86
2022/05/25 13:10:00;;;;;;;2.65;1.88;;;13.90;99.90;;;;;;4935679;29;20031;-85
2022/05/25 13:12:42;;;;;;;4.75;1.70;;;13.90;99.90;;;;;;4936181;29;20126;-84
2022/05/25 13:15:20;;;;;;;2.53;1.35;;;13.90;99.90;;;;;;4935949;29;20063;-85
2022/05/25 13:18:04;;;;;;;3.22;1.40;;;13.90;99.90;;;;;;4935343;29;20103;-85
2022/05/25 13:20:46;;;;;;;4.68;1.90;;;14.00;99.90;;;;;;4935689;29;20039;-85
2022/05/25 13:23:51;;;;;;;5.82;1.73;;;14.20;99.90;;;;;;4935836;29;20475;-85
2022/05/25 13:26:24;;;;;;;4.22;1.90;;;14.20;99.90;;;;;;4935615;29;20035;-85
2022/05/25 13:29:08;;;;;;;4.18;2.33;;;14.20;99.90;;;;;;4952457;29;20110;-85